createdAt,value
2023-05-05T00:01:02.411Z,4.40
2023-05-05T00:03:29.669Z,4.20
2023-05-05T00:05:56.925Z,4.40
2023-05-05T00:08:24.319Z,4.43
2023-05-05T00:10:54.596Z,4.20
2023-05-05T00:13:22.036Z,4.13
2023-05-05T00:15:51.317Z,4.13
2023-05-05T00:18:21.314Z,3.90
2023-05-05T00:20:48.591Z,4.60
2023-05-05T00:23:16.748Z,4.00
2023-05-05T00:25:44.952Z,3.93
2023-05-05T00:28:14.104Z,4.20
2023-05-05T00:30:41.906Z,4.27
2023-05-05T00:33:10.227Z,3.93
2023-05-05T00:35:39.501Z,4.60
2023-05-05T00:38:07.202Z,4.40
2023-05-05T00:40:34.238Z,4.20
2023-05-05T00:43:02.889Z,4.13
2023-05-05T00:45:30.920Z,4.60
2023-05-05T00:48:00.012Z,4.20
2023-05-05T00:50:29.558Z,4.70
2023-05-05T00:53:05.890Z,4.03
2023-05-05T00:55:34.355Z,4.43
2023-05-05T00:58:08.853Z,4.30
2023-05-05T01:00:35.920Z,4.77
2023-05-05T01:03:03.671Z,4.70
2023-05-05T01:05:42.490Z,4.53
2023-05-05T01:08:32.314Z,4.67
2023-05-05T01:11:07.864Z,4.70
2023-05-05T01:13:58.614Z,4.70
2023-05-05T01:16:30.094Z,4.60
2023-05-05T01:19:14.680Z,5.10
2023-05-05T01:21:51.895Z,4.70
2023-05-05T01:24:48.670Z,4.50
2023-05-05T01:27:47.718Z,4.67
2023-05-05T01:30:21.167Z,3.80
2023-05-05T01:32:57.593Z,4.73
2023-05-05T01:35:38.616Z,4.57
2023-05-05T01:38:16.283Z,4.13
2023-05-05T01:40:50.022Z,4.50
2023-05-05T01:43:21.669Z,4.27
2023-05-05T01:45:51.519Z,4.00
2023-05-05T01:48:20.572Z,4.90
2023-05-05T01:50:50.147Z,4.30
2023-05-05T01:53:19.150Z,4.50
2023-05-05T01:55:49.674Z,5.33
2023-05-05T01:58:19.331Z,4.57
2023-05-05T02:00:48.106Z,4.60
2023-05-05T02:03:20.058Z,4.27
2023-05-05T02:05:49.649Z,4.73
2023-05-05T02:08:17.726Z,4.77
2023-05-05T02:10:47.142Z,4.40
2023-05-05T02:13:18.377Z,4.93
2023-05-05T02:15:46.066Z,4.80
2023-05-05T02:18:14.276Z,4.50
2023-05-05T02:20:43.137Z,4.27
2023-05-05T02:23:11.065Z,4.50
2023-05-05T02:25:44.497Z,4.30
2023-05-05T02:28:34.271Z,4.77
2023-05-05T02:31:02.797Z,4.37
2023-05-05T02:33:34.008Z,4.80
2023-05-05T02:36:29.472Z,4.77
2023-05-05T02:39:13.493Z,4.73
2023-05-05T02:41:47.343Z,4.60
2023-05-05T02:44:26.183Z,4.70
2023-05-05T02:46:54.554Z,4.50
2023-05-05T02:49:24.135Z,4.90
2023-05-05T02:51:58.869Z,4.80
2023-05-05T02:54:34.094Z,4.90
2023-05-05T02:57:05.140Z,4.53
2023-05-05T02:59:48.687Z,4.53
2023-05-05T03:03:14.537Z,4.50
2023-05-05T03:05:49.415Z,4.90
2023-05-05T03:08:20.691Z,4.50
2023-05-05T03:11:06.591Z,4.70
2023-05-05T03:13:39.571Z,4.90
2023-05-05T03:16:09.116Z,4.50
2023-05-05T03:18:42.412Z,4.83
2023-05-05T03:21:10.059Z,4.97
2023-05-05T03:23:40.284Z,4.72
2023-05-05T03:26:19.081Z,4.70
2023-05-05T03:28:48.112Z,4.73
2023-05-05T03:31:28.536Z,4.87
2023-05-05T03:34:17.072Z,4.67
2023-05-05T03:36:47.176Z,4.90
2023-05-05T03:39:24.658Z,4.30
2023-05-05T03:41:52.208Z,4.67
2023-05-05T03:44:21.086Z,4.60
2023-05-05T03:46:48.295Z,4.90
2023-05-05T03:49:16.664Z,4.70
2023-05-05T03:51:45.685Z,5.33
2023-05-05T03:54:12.785Z,5.03
2023-05-05T03:56:43.233Z,4.77
2023-05-05T03:59:11.624Z,4.80
2023-05-05T04:01:38.995Z,4.73
2023-05-05T04:04:06.232Z,4.77
2023-05-05T04:06:33.249Z,5.30
2023-05-05T04:09:02.144Z,4.90
2023-05-05T04:11:34.177Z,4.70
2023-05-05T04:14:02.416Z,5.10
2023-05-05T04:16:32.073Z,5.00
2023-05-05T04:19:02.365Z,4.90
2023-05-05T04:21:30.278Z,5.20
2023-05-05T04:23:59.157Z,5.10
2023-05-05T04:26:27.587Z,5.17
2023-05-05T04:28:55.260Z,5.50
2023-05-05T04:31:22.516Z,5.17
2023-05-05T04:33:49.662Z,5.07
2023-05-05T04:36:19.075Z,5.20
2023-05-05T04:38:47.457Z,5.30
2023-05-05T04:41:14.565Z,5.13
2023-05-05T04:43:45.572Z,5.17
2023-05-05T04:46:13.392Z,5.13
2023-05-05T04:48:42.406Z,5.30
2023-05-05T04:51:09.538Z,5.23
2023-05-05T04:53:37.728Z,5.00
2023-05-05T04:56:05.070Z,5.30
2023-05-05T04:58:33.899Z,5.10
2023-05-05T05:01:01.502Z,5.57
2023-05-05T05:03:28.689Z,5.23
2023-05-05T05:05:55.630Z,5.00
2023-05-05T05:08:22.774Z,5.37
2023-05-05T05:10:50.944Z,5.03
2023-05-05T05:13:18.167Z,5.50
2023-05-05T05:15:47.120Z,5.43
2023-05-05T05:18:14.369Z,5.27
2023-05-05T05:20:42.505Z,5.10
2023-05-05T05:23:09.786Z,4.90
2023-05-05T05:25:43.311Z,5.57
2023-05-05T05:28:11.450Z,5.50
2023-05-05T05:30:44.991Z,5.00
2023-05-05T05:33:14.869Z,5.70
2023-05-05T05:35:43.585Z,5.40
2023-05-05T05:38:10.919Z,5.33
2023-05-05T05:40:38.154Z,5.27
2023-05-05T05:43:05.263Z,5.50
2023-05-05T05:45:34.392Z,5.70
2023-05-05T05:48:04.886Z,5.60
2023-05-05T05:50:32.087Z,5.63
2023-05-05T05:53:01.379Z,6.30
2023-05-05T05:55:29.573Z,5.90
2023-05-05T05:58:00.776Z,5.97
2023-05-05T06:00:31.584Z,5.47
2023-05-05T06:03:05.426Z,6.20
2023-05-05T06:05:36.231Z,5.83
2023-05-05T06:08:03.442Z,5.63
2023-05-05T06:10:34.456Z,5.50
2023-05-05T06:13:09.680Z,5.50
2023-05-05T06:15:44.360Z,5.77
2023-05-05T06:18:13.192Z,5.40
2023-05-05T06:20:43.559Z,5.57
2023-05-05T06:23:12.027Z,5.60
2023-05-05T06:25:44.385Z,5.83
2023-05-05T06:28:11.704Z,6.00
2023-05-05T06:30:39.230Z,6.07
2023-05-05T06:33:07.431Z,7.40
2023-05-05T06:35:34.706Z,7.53
2023-05-05T06:38:02.123Z,7.53
2023-05-05T06:40:30.940Z,7.40
2023-05-05T06:42:58.005Z,7.70
2023-05-05T06:45:31.235Z,7.87
2023-05-05T06:47:59.270Z,8.00
2023-05-05T06:50:26.475Z,8.70
2023-05-05T06:52:53.473Z,7.43
2023-05-05T06:55:23.890Z,7.63
2023-05-05T06:57:51.451Z,9.60
2023-05-05T07:00:20.060Z,8.57
2023-05-05T07:02:48.227Z,8.27
2023-05-05T07:05:15.582Z,9.20
2023-05-05T07:07:54.946Z,8.13
2023-05-05T07:10:23.615Z,8.40
2023-05-05T07:12:52.429Z,9.00
2023-05-05T07:15:27.353Z,9.03
2023-05-05T07:17:56.743Z,8.50
2023-05-05T07:20:24.351Z,8.13
2023-05-05T07:22:52.728Z,9.00
2023-05-05T07:25:19.842Z,8.73
2023-05-05T07:27:47.935Z,7.33
2023-05-05T07:30:18.501Z,9.23
2023-05-05T07:32:47.180Z,7.60
2023-05-05T07:35:14.342Z,8.90
2023-05-05T07:37:48.122Z,9.33
2023-05-05T07:40:15.445Z,9.77
2023-05-05T07:42:43.159Z,8.87
2023-05-05T07:45:10.524Z,8.40
2023-05-05T07:47:38.081Z,9.00
2023-05-05T07:50:07.227Z,9.10
2023-05-05T07:52:46.873Z,8.17
2023-05-05T07:55:19.344Z,7.67
2023-05-05T07:57:48.374Z,10.13
2023-05-05T08:00:15.761Z,9.07
2023-05-05T08:02:45.417Z,8.73
2023-05-05T08:05:13.787Z,8.83
2023-05-05T08:07:41.623Z,9.30
2023-05-05T08:10:12.103Z,9.17
2023-05-05T08:12:42.212Z,10.23
2023-05-05T08:15:11.286Z,9.13
2023-05-05T08:17:52.014Z,9.67
2023-05-05T08:20:21.285Z,9.93
2023-05-05T08:22:50.548Z,8.63
2023-05-05T08:25:17.884Z,9.20
2023-05-05T08:27:46.237Z,9.50
2023-05-05T08:30:13.789Z,7.83
2023-05-05T08:32:42.171Z,9.77
2023-05-05T08:35:09.666Z,9.77
2023-05-05T08:37:37.920Z,8.80
2023-05-05T08:40:05.785Z,9.07
2023-05-05T08:42:38.810Z,11.67
2023-05-05T08:45:11.495Z,11.20
2023-05-05T08:47:41.579Z,10.70
2023-05-05T08:50:11.262Z,9.83
2023-05-05T08:52:45.574Z,10.27
2023-05-05T08:55:27.800Z,8.87
2023-05-05T08:58:09.755Z,11.90
2023-05-05T09:00:37.050Z,11.23
2023-05-05T09:03:05.936Z,11.87
2023-05-05T09:05:35.790Z,11.37
2023-05-05T09:08:10.826Z,9.53
2023-05-05T09:10:42.388Z,10.50
2023-05-05T09:13:09.716Z,10.73
2023-05-05T09:15:39.503Z,8.27
2023-05-05T09:18:09.685Z,9.80
2023-05-05T09:20:41.962Z,7.70
2023-05-05T09:23:21.906Z,9.30
2023-05-05T09:26:05.585Z,7.93
2023-05-05T09:28:34.089Z,8.20
2023-05-05T09:31:16.278Z,7.77
2023-05-05T09:33:46.630Z,11.03
2023-05-05T09:36:14.175Z,9.37
2023-05-05T09:38:42.391Z,10.30
2023-05-05T09:41:12.231Z,9.37
2023-05-05T09:43:56.520Z,10.40
2023-05-05T09:46:24.312Z,9.17
2023-05-05T09:48:52.582Z,8.50
2023-05-05T09:51:29.468Z,7.60
2023-05-05T09:53:59.810Z,9.23
2023-05-05T09:56:42.932Z,9.73
2023-05-05T09:59:12.007Z,7.87
2023-05-05T10:01:41.503Z,9.20
2023-05-05T10:04:22.751Z,9.90
2023-05-05T10:06:53.491Z,8.13
2023-05-05T10:09:22.044Z,9.30
2023-05-05T10:11:49.781Z,8.10
2023-05-05T10:14:20.941Z,7.70
2023-05-05T10:16:52.818Z,8.77
2023-05-05T10:19:24.474Z,7.10
2023-05-05T10:21:53.265Z,8.57
2023-05-05T10:24:41.327Z,7.67
2023-05-05T10:27:19.297Z,6.53
2023-05-05T10:30:06.255Z,6.63
2023-05-05T10:32:56.956Z,9.13
2023-05-05T10:35:23.591Z,8.93
2023-05-05T10:37:51.117Z,11.20
2023-05-05T10:40:18.086Z,10.60
2023-05-05T10:42:45.556Z,11.70
2023-05-05T10:45:13.165Z,10.67
2023-05-05T10:47:41.973Z,10.57
2023-05-05T10:50:18.048Z,8.57
2023-05-05T10:53:03.958Z,8.70
2023-05-05T10:56:17.903Z,9.80
2023-05-05T10:58:59.205Z,10.30
2023-05-05T11:01:29.194Z,10.43
2023-05-05T11:04:25.637Z,10.00
2023-05-05T11:07:14.594Z,10.10
2023-05-05T11:10:04.217Z,11.60
2023-05-05T11:12:33.390Z,8.43
2023-05-05T11:15:33.507Z,9.73
2023-05-05T11:18:07.493Z,8.27
2023-05-05T11:20:50.895Z,6.77
2023-05-05T11:23:38.896Z,7.43
2023-05-05T11:26:06.760Z,7.40
2023-05-05T11:28:35.143Z,8.47
2023-05-05T11:31:03.035Z,6.80
2023-05-05T11:33:48.934Z,7.13
2023-05-05T11:36:18.034Z,6.80
2023-05-05T11:39:11.961Z,6.30
2023-05-05T11:42:11.503Z,6.80
2023-05-05T11:44:39.292Z,7.13
2023-05-05T11:47:07.119Z,6.60
2023-05-05T11:49:36.042Z,7.37
2023-05-05T11:52:08.731Z,7.00
2023-05-05T11:54:37.931Z,7.73
2023-05-05T11:57:07.432Z,5.60
2023-05-05T11:59:49.642Z,5.80
2023-05-05T12:02:18.342Z,6.40
2023-05-05T12:04:45.674Z,6.03
2023-05-05T12:07:21.735Z,6.53
2023-05-05T12:09:50.016Z,5.10
2023-05-05T12:12:18.737Z,4.83
2023-05-05T12:14:47.752Z,6.60
2023-05-05T12:21:35.900Z,6.80
2023-05-05T12:24:03.346Z,5.00
2023-05-05T12:26:32.004Z,4.77
2023-05-05T12:29:02.965Z,4.43
2023-05-05T12:31:36.748Z,5.70
2023-05-05T12:34:05.467Z,5.10
2023-05-05T12:36:34.672Z,5.00
2023-05-05T12:39:07.515Z,4.80
2023-05-05T12:41:39.078Z,5.10
2023-05-05T12:44:06.050Z,4.20
2023-05-05T12:46:46.053Z,5.77
2023-05-05T12:49:13.196Z,4.83
2023-05-05T12:51:53.037Z,5.93
2023-05-05T12:54:20.147Z,4.87
2023-05-05T12:56:48.178Z,4.60
2023-05-05T12:59:27.565Z,5.07
2023-05-05T13:02:02.228Z,5.10
2023-05-05T13:04:33.013Z,4.87
2023-05-05T13:07:18.042Z,5.30
2023-05-05T13:09:45.377Z,4.60
2023-05-05T13:12:12.491Z,4.83
2023-05-05T13:14:41.551Z,5.17
2023-05-05T13:17:09.234Z,4.10
2023-05-05T13:19:42.184Z,4.23
2023-05-05T13:22:10.475Z,4.10
2023-05-05T13:24:47.120Z,4.70
2023-05-05T13:27:17.511Z,4.20
2023-05-05T13:29:46.175Z,4.37
2023-05-05T13:32:14.456Z,4.37
2023-05-05T13:34:42.615Z,4.00
2023-05-05T13:37:10.706Z,4.27
2023-05-05T13:39:38.234Z,4.37
2023-05-05T13:42:06.390Z,4.23
2023-05-05T13:44:35.328Z,4.30
2023-05-05T13:47:03.667Z,3.50
2023-05-05T13:49:33.425Z,4.00
2023-05-05T13:52:02.816Z,3.80
2023-05-05T13:54:30.044Z,3.80
2023-05-05T13:56:57.973Z,3.77
2023-05-05T13:59:25.909Z,3.60
2023-05-05T14:01:52.931Z,3.90
2023-05-05T14:04:20.387Z,3.50
2023-05-05T14:06:47.954Z,3.50
2023-05-05T14:09:18.452Z,3.60
2023-05-05T14:11:46.242Z,3.50
2023-05-05T14:14:13.169Z,3.57
2023-05-05T14:16:44.195Z,3.30
2023-05-05T14:19:11.205Z,3.67
2023-05-05T14:21:38.363Z,3.60
2023-05-05T14:24:05.698Z,5.13
2023-05-05T14:26:33.252Z,5.00
2023-05-05T14:29:01.881Z,4.40
2023-05-05T14:31:29.165Z,9.03
2023-05-05T14:33:57.780Z,3.83
2023-05-05T14:36:25.487Z,3.53
2023-05-05T14:38:53.876Z,6.17
2023-05-05T14:41:22.266Z,3.63
2023-05-05T14:43:49.236Z,3.57
2023-05-05T14:46:16.394Z,3.50
2023-05-05T14:48:46.408Z,3.47
2023-05-05T14:51:15.899Z,3.17
2023-05-05T14:53:43.305Z,3.17
2023-05-05T14:56:11.283Z,3.30
2023-05-05T14:58:38.294Z,3.13
2023-05-05T15:01:07.890Z,3.30
2023-05-05T15:03:37.137Z,3.30
2023-05-05T15:06:05.465Z,3.00
2023-05-05T15:08:34.312Z,3.20
2023-05-05T15:11:02.180Z,3.20
2023-05-05T15:13:32.267Z,3.03
2023-05-05T15:15:59.301Z,3.20
2023-05-05T15:18:26.325Z,3.50
2023-05-05T15:20:54.216Z,3.40
2023-05-05T15:23:21.623Z,3.30
2023-05-05T15:25:50.074Z,3.00
2023-05-05T15:28:17.502Z,3.30
2023-05-05T15:30:46.040Z,3.03
2023-05-05T15:33:13.105Z,3.40
2023-05-05T15:35:41.411Z,2.87
2023-05-05T15:38:08.489Z,3.20
2023-05-05T15:40:35.737Z,3.10
2023-05-05T15:43:04.113Z,3.17
2023-05-05T15:45:31.203Z,3.13
2023-05-05T15:47:58.196Z,3.13
2023-05-05T15:50:26.819Z,2.90
2023-05-05T15:52:57.126Z,3.23
2023-05-05T15:55:24.238Z,3.20
2023-05-05T15:57:52.670Z,3.73
2023-05-05T16:00:21.725Z,3.10
2023-05-05T16:02:48.775Z,3.30
2023-05-05T16:05:15.878Z,3.30
2023-05-05T16:07:43.208Z,2.90
2023-05-05T16:10:10.726Z,2.93
2023-05-05T16:12:37.703Z,3.33
2023-05-05T16:15:05.122Z,3.13
2023-05-05T16:17:34.293Z,2.90
2023-05-05T16:20:03.848Z,3.10
2023-05-05T16:22:30.742Z,3.03
2023-05-05T16:24:57.597Z,3.37
2023-05-05T16:27:24.755Z,3.50
2023-05-05T16:29:56.800Z,3.10
2023-05-05T16:32:28.373Z,3.00
2023-05-05T16:34:55.395Z,3.33
2023-05-05T16:37:22.410Z,3.43
2023-05-05T16:39:49.401Z,3.40
2023-05-05T16:42:18.251Z,3.20
2023-05-05T16:44:45.126Z,2.93
2023-05-05T16:47:11.964Z,3.30
2023-05-05T16:49:41.497Z,2.90
2023-05-05T16:52:08.444Z,3.20
2023-05-05T16:54:36.223Z,3.03
2023-05-05T16:57:03.807Z,3.20
2023-05-05T16:59:33.074Z,3.17
2023-05-05T17:02:00.353Z,3.30
2023-05-05T17:04:27.721Z,3.40
2023-05-05T17:06:55.358Z,3.10
2023-05-05T17:09:25.292Z,3.17
2023-05-05T17:11:52.284Z,3.30
2023-05-05T17:14:19.275Z,3.00
2023-05-05T17:16:48.106Z,3.13
2023-05-05T17:19:15.219Z,3.50
2023-05-05T17:21:43.236Z,3.50
2023-05-05T17:24:11.428Z,3.63
2023-05-05T17:26:41.512Z,3.90
2023-05-05T17:29:11.588Z,4.50
2023-05-05T17:31:44.459Z,4.30
2023-05-05T17:34:13.559Z,5.03
2023-05-05T17:36:41.166Z,4.60
2023-05-05T17:39:10.512Z,4.70
2023-05-05T17:41:37.445Z,4.80
2023-05-05T17:44:04.535Z,4.83
2023-05-05T17:46:31.724Z,4.17
2023-05-05T17:49:02.776Z,4.43
2023-05-05T17:51:29.855Z,4.07
2023-05-05T17:53:57.173Z,4.70
2023-05-05T17:56:24.073Z,4.27
2023-05-05T17:58:51.387Z,4.03
2023-05-05T18:01:24.388Z,4.60
2023-05-05T18:03:53.990Z,4.40
2023-05-05T18:06:20.910Z,4.23
2023-05-05T18:08:48.025Z,4.43
2023-05-05T18:11:15.443Z,4.70
2023-05-05T18:13:43.555Z,4.50
2023-05-05T18:16:10.901Z,4.67
2023-05-05T18:18:38.417Z,4.50
2023-05-05T18:21:06.661Z,4.90
2023-05-05T18:23:33.844Z,4.67
2023-05-05T18:26:02.035Z,4.80
2023-05-05T18:28:29.259Z,5.13
2023-05-05T18:31:00.690Z,5.00
2023-05-05T18:33:28.692Z,6.33
2023-05-05T18:36:01.109Z,5.60
2023-05-05T18:38:28.684Z,5.77
2023-05-05T18:40:57.431Z,5.73
2023-05-05T18:43:27.087Z,6.07
2023-05-05T18:45:55.898Z,7.03
2023-05-05T18:48:24.646Z,7.67
2023-05-05T18:50:55.749Z,6.67
2023-05-05T18:53:23.759Z,7.30
2023-05-05T18:55:51.441Z,6.47
2023-05-05T18:58:19.091Z,7.80
2023-05-05T19:00:47.848Z,6.90
2023-05-05T19:03:15.416Z,6.80
2023-05-05T19:05:44.848Z,6.00
2023-05-05T19:08:12.432Z,6.87
2023-05-05T19:10:40.555Z,6.70
2023-05-05T19:13:11.381Z,6.33
2023-05-05T19:15:39.038Z,5.63
2023-05-05T19:18:07.823Z,5.27
2023-05-05T19:20:38.152Z,5.60
2023-05-05T19:23:11.117Z,5.67
2023-05-05T19:25:38.765Z,5.80
2023-05-05T19:28:07.370Z,6.00
2023-05-05T19:30:35.260Z,6.47
2023-05-05T19:33:06.115Z,6.50
2023-05-05T19:35:36.548Z,5.90
2023-05-05T19:38:04.081Z,5.67
2023-05-05T19:40:31.754Z,5.90
2023-05-05T19:43:03.269Z,5.83
2023-05-05T19:45:31.966Z,6.03
2023-05-05T19:47:59.907Z,6.60
2023-05-05T19:50:28.075Z,6.73
2023-05-05T19:52:57.058Z,7.00
2023-05-05T19:55:25.175Z,7.00
2023-05-05T19:57:55.082Z,6.60
2023-05-05T20:00:25.136Z,7.20
2023-05-05T20:02:54.845Z,6.43
2023-05-05T20:05:25.485Z,6.93
2023-05-05T20:07:55.857Z,6.87
2023-05-05T20:10:23.462Z,6.10
2023-05-05T20:12:52.412Z,7.00
2023-05-05T20:15:21.075Z,6.40
2023-05-05T20:17:49.725Z,6.77
2023-05-05T20:20:26.112Z,7.17
2023-05-05T20:22:55.214Z,7.23
2023-05-05T20:25:23.740Z,7.10
2023-05-05T20:27:55.660Z,7.20
2023-05-05T20:30:23.235Z,7.20
2023-05-05T20:32:51.323Z,6.70
2023-05-05T20:35:18.995Z,6.70
2023-05-05T20:37:46.729Z,6.00
2023-05-05T20:40:13.972Z,6.63
2023-05-05T20:42:41.386Z,6.53
2023-05-05T20:45:10.770Z,6.70
2023-05-05T20:47:40.942Z,6.70
2023-05-05T20:50:09.857Z,6.40
2023-05-05T20:52:37.081Z,6.80
2023-05-05T20:55:05.829Z,7.00
2023-05-05T20:57:32.825Z,6.90
2023-05-05T21:00:00.059Z,7.00
2023-05-05T21:02:28.379Z,6.40
2023-05-05T21:05:02.867Z,6.47
2023-05-05T21:07:35.185Z,6.27
2023-05-05T21:10:03.253Z,6.60
2023-05-05T21:12:30.697Z,6.80
2023-05-05T21:14:58.930Z,6.77
2023-05-05T21:17:31.837Z,7.10
2023-05-05T21:20:02.143Z,7.10
2023-05-05T21:22:29.169Z,6.80
2023-05-05T21:25:12.374Z,6.83
2023-05-05T21:27:40.850Z,6.50
2023-05-05T21:30:11.365Z,6.50
2023-05-05T21:32:39.483Z,6.13
2023-05-05T21:35:11.082Z,6.60
2023-05-05T21:37:41.406Z,6.50
2023-05-05T21:40:13.535Z,6.60
2023-05-05T21:42:41.555Z,6.60
2023-05-05T21:45:13.185Z,7.00
2023-05-05T21:47:41.334Z,6.90
2023-05-05T21:50:10.684Z,6.93
2023-05-05T21:52:37.913Z,6.20
2023-05-05T21:55:06.904Z,6.13
2023-05-05T21:57:33.805Z,5.80
2023-05-05T22:00:00.846Z,5.83
2023-05-05T22:02:27.834Z,5.67
2023-05-05T22:04:54.934Z,5.43
2023-05-05T22:07:24.860Z,5.30
2023-05-05T22:09:54.860Z,5.00
2023-05-05T22:12:21.758Z,5.40
2023-05-05T22:14:48.676Z,5.17
2023-05-05T22:17:15.579Z,4.93
2023-05-05T22:19:42.385Z,5.70
2023-05-05T22:22:09.322Z,5.20
2023-05-05T22:24:37.190Z,5.30
2023-05-05T22:27:04.504Z,5.30
2023-05-05T22:29:32.787Z,5.30
2023-05-05T22:32:00.240Z,5.27
2023-05-05T22:34:27.144Z,5.30
2023-05-05T22:36:55.538Z,5.40
2023-05-05T22:39:22.615Z,5.63
2023-05-05T22:41:50.926Z,5.57
2023-05-05T22:44:18.266Z,5.40
2023-05-05T22:46:45.312Z,5.67
2023-05-05T22:49:15.042Z,5.53
2023-05-05T22:51:41.972Z,5.77
2023-05-05T22:54:08.806Z,5.47
2023-05-05T22:56:37.221Z,5.77
2023-05-05T22:59:05.678Z,5.63
2023-05-05T23:01:35.894Z,5.43
2023-05-05T23:04:02.955Z,5.27
2023-05-05T23:06:32.651Z,5.93
2023-05-05T23:08:59.582Z,5.77
2023-05-05T23:11:26.601Z,5.90
2023-05-05T23:13:54.393Z,6.33
2023-05-05T23:16:21.599Z,6.03
2023-05-05T23:18:48.463Z,5.80
2023-05-05T23:21:18.804Z,5.70
2023-05-05T23:23:45.765Z,5.77
2023-05-05T23:26:13.667Z,6.10
2023-05-05T23:28:40.595Z,5.90
2023-05-05T23:31:11.349Z,5.30
2023-05-05T23:33:39.192Z,5.80
2023-05-05T23:36:07.509Z,5.63
2023-05-05T23:38:37.767Z,5.93
2023-05-05T23:41:06.150Z,6.13
2023-05-05T23:43:33.022Z,5.50
2023-05-05T23:45:59.915Z,5.77
2023-05-05T23:48:26.804Z,5.70
2023-05-05T23:50:55.243Z,5.87
2023-05-05T23:53:22.096Z,6.00
2023-05-05T23:55:49.115Z,6.03
2023-05-05T23:58:16.306Z,6.67
